Portada
METAR-TAF:

METAR-TAF

Aeroports :

Harbin, Xina

latitud: 45-45N, longitud: 126-46E, altitud: 143 m

Observació

L'informe es va fer fa 1 hora i 13 minuts, a les 10:00 UTC
Vent 4 kt del Oest
Temperatura -11°C
Humitat 43%
Pressió 1022 hPa
Visibilitat 10 km o més
sense núvols per sota de 1500 mi sense presència de cumulonimbus.

METAR: ZYHB 201000Z 26002MPS CAVOK M11/M21 Q1022 NOSIG

Hora: 19:13 (11:13 UTC)

Pronòstic

L'informe es va fer fa 8 hores i 12 minuts, a les 03:01 UTC
Pronòstic vàlid del 20 a les 06 UTC al 21 a les 06 UTC
Vent 8 kt del Oest
Visibilitat: 6000 m
Escasses núvols a una alçada de 3300 ft

TAF: ZYHB 200301Z 2006/2106 28004MPS 6000 FEW033 TXM08/06Z TNM20/21Z

Observacions i pronòstics meteorològics de més de 4000 aeroports (METAR i TAF).

Les estacions disponibles són els punts grocs i vermells al mapa.

Posi el ratolí al punt desitjat per veure el nom de l'estació.

Feu clic per veure les observacions i els pronòstics meteorològics.

Per canviar el mapa: feu clic els botons verds amb una creu de color negre per apropar; al botó verd amb un guió per allunyar la imatge; o en les fletxes verdes per a mapes adjacents.


METAR-TAF: